Camano Island, Washington
Current Conditions -  °F | °C
As of 11:56 PM on Friday 24 Oct 2014 (Local Time) from KNUW Reporting Station
Light Rain Light Rain  
Wind Chill: 52°   Ceiling: 4600
Heat Index: 52°   Visibility: 10mi
Dew Point: 48°   Wind: 5mph
Humidity: 86%   Direction: 50°NE
Pressure: 29.79"   Gusts: NA
Location:  48.16°N, 122.49°W
Report Text: KNUW 250656Z 05004KT 10SM -RA SCT012 BKN046 OVC060 11/09 A2979 RMK AO2 SLP091 P0005 T01110089 401560094 $
Loading
Personal Weather Stations






























Interactive Weather Map
Tropical Storm Tracking
New forecast layout! Learn more

10-Day Weather Forecast

Advertisements
Track Severe Weather on mobile